createdAt,value
2023-04-29T00:00:03.582Z,579.96
2023-04-29T00:00:14.571Z,579.88
2023-04-29T00:00:25.553Z,579.72
2023-04-29T00:00:36.557Z,579.77
2023-04-29T00:00:47.544Z,579.88
2023-04-29T00:00:58.533Z,579.92
2023-04-29T00:01:09.620Z,580.03
2023-04-29T00:01:21.575Z,580.11
2023-04-29T00:01:32.550Z,580.23
2023-04-29T00:01:43.529Z,580.18
2023-04-29T00:01:54.646Z,580.09
2023-04-29T00:02:06.645Z,580.09
2023-04-29T00:02:18.762Z,580.11
2023-04-29T00:02:32.000Z,580.05
2023-04-29T00:02:41.805Z,579.95
2023-04-29T00:02:52.807Z,579.87
2023-04-29T00:03:04.706Z,579.70
2023-04-29T00:03:16.707Z,579.76
2023-04-29T00:03:28.791Z,580.02
2023-04-29T00:03:40.693Z,580.05
2023-04-29T00:03:51.699Z,579.99
2023-04-29T00:04:03.714Z,580.07
2023-04-29T00:04:15.817Z,579.98
2023-04-29T00:04:27.777Z,579.93
2023-04-29T00:04:38.815Z,579.84
2023-04-29T00:04:50.737Z,579.89
2023-04-29T00:05:01.959Z,580.02
2023-04-29T00:05:13.727Z,580.18
2023-04-29T00:05:25.793Z,580.15
2023-04-29T00:05:37.779Z,580.27
2023-04-29T00:05:49.825Z,580.38
2023-04-29T00:06:00.687Z,580.44
2023-04-29T00:06:12.729Z,580.28
2023-04-29T00:06:23.627Z,580.20
2023-04-29T00:06:34.539Z,580.24
2023-04-29T00:06:45.534Z,580.24
2023-04-29T00:06:56.557Z,580.26
2023-04-29T00:07:07.510Z,580.24
2023-04-29T00:07:18.617Z,580.37
2023-04-29T00:07:29.583Z,580.43
2023-04-29T00:07:40.566Z,580.52
2023-04-29T00:07:51.527Z,580.53
2023-04-29T00:08:02.607Z,580.46
2023-04-29T00:08:13.585Z,580.49
2023-04-29T00:08:24.553Z,580.60
2023-04-29T00:08:35.561Z,580.74
2023-04-29T00:08:46.533Z,580.81
2023-04-29T00:08:57.626Z,580.78
2023-04-29T00:09:09.559Z,580.79
2023-04-29T00:09:20.532Z,580.74
2023-04-29T00:09:31.610Z,580.76
2023-04-29T00:09:42.582Z,580.66
2023-04-29T00:09:53.846Z,580.67
2023-04-29T00:10:05.570Z,580.58
2023-04-29T00:10:17.597Z,580.53
2023-04-29T00:10:28.579Z,580.56
2023-04-29T00:10:39.569Z,580.69
2023-04-29T00:10:50.547Z,580.84
2023-04-29T00:11:01.617Z,580.92
2023-04-29T00:11:13.569Z,581.00
2023-04-29T00:11:24.544Z,581.03
2023-04-29T00:11:35.619Z,580.98
2023-04-29T00:11:47.574Z,580.92
2023-04-29T00:11:58.550Z,580.79
2023-04-29T00:12:09.537Z,580.71
2023-04-29T00:12:20.621Z,580.69
2023-04-29T00:12:32.578Z,580.72
2023-04-29T00:12:43.574Z,580.70
2023-04-29T00:12:54.545Z,580.67
2023-04-29T00:13:05.529Z,580.66
2023-04-29T00:13:16.526Z,580.56
2023-04-29T00:13:27.617Z,580.61
2023-04-29T00:13:39.564Z,580.87
2023-04-29T00:13:50.530Z,581.02
2023-04-29T00:14:01.604Z,581.00
2023-04-29T00:14:13.553Z,580.91
2023-04-29T00:14:24.536Z,580.83
2023-04-29T00:14:35.623Z,580.81
2023-04-29T00:14:47.557Z,580.75
2023-04-29T00:14:58.532Z,580.78
2023-04-29T00:15:09.616Z,580.80
2023-04-29T00:15:21.570Z,580.83
2023-04-29T00:15:32.545Z,580.90
2023-04-29T00:15:43.519Z,580.93
2023-04-29T00:15:54.600Z,580.97
2023-04-29T00:16:05.566Z,580.98
2023-04-29T00:16:16.576Z,580.95
2023-04-29T00:16:28.573Z,580.87
2023-04-29T00:16:39.591Z,580.86
2023-04-29T00:16:51.584Z,580.96
2023-04-29T00:17:02.635Z,580.93
2023-04-29T00:17:14.643Z,580.87
2023-04-29T00:17:25.586Z,580.86
2023-04-29T00:17:36.671Z,580.77
2023-04-29T00:17:47.606Z,580.70
2023-04-29T00:17:58.586Z,580.58
2023-04-29T00:18:10.584Z,580.83
2023-04-29T00:18:21.580Z,580.90
2023-04-29T00:18:32.562Z,581.03
2023-04-29T00:18:43.553Z,581.02
2023-04-29T00:18:54.556Z,581.12
2023-04-29T00:19:05.562Z,581.13
2023-04-29T00:19:16.544Z,581.04
2023-04-29T00:19:27.621Z,581.00
2023-04-29T00:19:39.557Z,581.08
2023-04-29T00:19:50.746Z,581.01
2023-04-29T00:20:02.555Z,581.00
2023-04-29T00:20:13.555Z,581.13
2023-04-29T00:20:24.536Z,581.15
2023-04-29T00:20:35.614Z,581.13
2023-04-29T00:20:47.557Z,581.02
2023-04-29T00:20:58.541Z,580.95
2023-04-29T00:21:09.612Z,580.78
2023-04-29T00:21:21.557Z,580.83
2023-04-29T00:21:32.543Z,580.97
2023-04-29T00:21:43.542Z,580.85
2023-04-29T00:21:54.537Z,580.80
2023-04-29T00:22:05.615Z,580.74
2023-04-29T00:22:17.570Z,580.77
2023-04-29T00:22:28.564Z,580.73
2023-04-29T00:22:39.554Z,580.64
2023-04-29T00:22:50.531Z,580.66
2023-04-29T00:23:01.619Z,580.68
2023-04-29T00:23:13.556Z,580.63
2023-04-29T00:23:24.555Z,580.62
2023-04-29T00:23:35.529Z,580.62
2023-04-29T00:23:46.609Z,580.71
2023-04-29T00:23:58.556Z,580.76
2023-04-29T00:24:09.538Z,580.75
2023-04-29T00:24:20.520Z,580.72
2023-04-29T00:24:31.622Z,580.68
2023-04-29T00:24:43.564Z,580.73
2023-04-29T00:24:54.540Z,580.79
2023-04-29T00:25:05.621Z,580.78
2023-04-29T00:25:17.574Z,580.78
2023-04-29T00:25:28.561Z,580.78
2023-04-29T00:25:39.520Z,580.72
2023-04-29T00:25:50.625Z,580.67
2023-04-29T00:26:02.621Z,580.79
2023-04-29T00:26:13.555Z,580.69
2023-04-29T00:26:24.539Z,580.50
2023-04-29T00:26:35.613Z,580.61
2023-04-29T00:26:47.558Z,580.83
2023-04-29T00:26:58.539Z,580.86
2023-04-29T00:27:09.611Z,580.72
2023-04-29T00:27:21.562Z,580.63
2023-04-29T00:27:32.540Z,580.61
2023-04-29T00:27:43.613Z,580.48
2023-04-29T00:27:55.556Z,580.47
2023-04-29T00:28:06.549Z,580.45
2023-04-29T00:28:17.527Z,580.64
2023-04-29T00:28:28.639Z,580.78
2023-04-29T00:28:40.606Z,580.75
2023-04-29T00:28:51.563Z,580.75
2023-04-29T00:29:02.558Z,580.77
2023-04-29T00:29:13.543Z,580.70
2023-04-29T00:29:24.527Z,580.70
2023-04-29T00:29:35.658Z,580.75
2023-04-29T00:29:47.591Z,580.76
2023-04-29T00:29:58.563Z,580.73
2023-04-29T00:30:09.551Z,580.68
2023-04-29T00:30:20.546Z,580.59
2023-04-29T00:30:31.538Z,580.70
2023-04-29T00:30:42.541Z,580.73
2023-04-29T00:30:53.560Z,580.61
2023-04-29T00:31:04.560Z,580.59
2023-04-29T00:31:15.676Z,580.67
2023-04-29T00:31:27.667Z,580.62
2023-04-29T00:31:39.602Z,580.56
2023-04-29T00:31:50.532Z,580.57
2023-04-29T00:32:01.606Z,580.64
2023-04-29T00:32:12.579Z,580.54
2023-04-29T00:32:23.576Z,580.55
2023-04-29T00:32:34.656Z,580.60
2023-04-29T00:32:45.584Z,580.60
2023-04-29T00:32:57.621Z,580.60
2023-04-29T00:33:08.597Z,580.54
2023-04-29T00:33:19.607Z,580.59
2023-04-29T00:33:31.571Z,580.69
2023-04-29T00:33:42.558Z,580.67
2023-04-29T00:33:53.561Z,580.65
2023-04-29T00:34:04.539Z,580.47
2023-04-29T00:34:15.617Z,580.43
2023-04-29T00:34:27.591Z,580.60
2023-04-29T00:34:39.562Z,580.73
2023-04-29T00:34:50.549Z,580.73
2023-04-29T00:35:01.562Z,580.72
2023-04-29T00:35:12.542Z,580.86
2023-04-29T00:35:23.627Z,580.95
2023-04-29T00:35:35.574Z,580.75
2023-04-29T00:35:46.565Z,580.63
2023-04-29T00:35:57.550Z,580.55
2023-04-29T00:36:08.526Z,580.49
2023-04-29T00:36:19.528Z,580.65
2023-04-29T00:36:30.607Z,580.66
2023-04-29T00:36:42.551Z,580.49
2023-04-29T00:36:53.544Z,580.55
2023-04-29T00:37:04.631Z,580.57
2023-04-29T00:37:16.591Z,580.66
2023-04-29T00:37:27.578Z,580.74
2023-04-29T00:37:38.533Z,580.78
2023-04-29T00:37:49.529Z,580.77
2023-04-29T00:38:00.613Z,580.75
2023-04-29T00:38:12.557Z,580.73
2023-04-29T00:38:23.538Z,580.68
2023-04-29T00:38:34.613Z,580.59
2023-04-29T00:38:46.557Z,580.54
2023-04-29T00:38:57.533Z,580.49
2023-04-29T00:39:08.618Z,580.52
2023-04-29T00:39:20.558Z,580.49
2023-04-29T00:39:31.547Z,580.45
2023-04-29T00:39:42.547Z,580.32
2023-04-29T00:39:53.715Z,580.33
2023-04-29T00:40:04.524Z,580.61
2023-04-29T00:40:15.613Z,580.65
2023-04-29T00:40:27.571Z,580.57
2023-04-29T00:40:38.551Z,580.69
2023-04-29T00:40:49.528Z,580.83
2023-04-29T00:41:00.608Z,580.76
2023-04-29T00:41:11.586Z,580.62
2023-04-29T00:41:22.560Z,580.51
2023-04-29T00:41:33.560Z,580.50
2023-04-29T00:41:44.545Z,580.54
2023-04-29T00:41:55.541Z,580.51
2023-04-29T00:42:06.626Z,580.45
2023-04-29T00:42:18.563Z,580.38
2023-04-29T00:42:29.559Z,580.40
2023-04-29T00:42:40.529Z,580.36
2023-04-29T00:42:51.619Z,580.41
2023-04-29T00:43:03.571Z,580.48
2023-04-29T00:43:14.558Z,580.60
2023-04-29T00:43:25.544Z,580.64
2023-04-29T00:43:36.534Z,580.54
2023-04-29T00:43:47.605Z,580.43
2023-04-29T00:43:58.582Z,580.37
2023-04-29T00:44:09.568Z,580.29
2023-04-29T00:44:20.548Z,580.27
2023-04-29T00:44:31.560Z,580.29
2023-04-29T00:44:42.543Z,580.22
2023-04-29T00:44:53.546Z,580.20
2023-04-29T00:45:05.996Z,580.36
2023-04-29T00:45:15.615Z,580.43
2023-04-29T00:45:27.576Z,580.49
2023-04-29T00:45:38.579Z,580.30
2023-04-29T00:45:49.583Z,580.32
2023-04-29T00:46:00.590Z,580.31
2023-04-29T00:46:12.621Z,580.30
2023-04-29T00:46:24.588Z,580.06
2023-04-29T00:46:35.555Z,580.11
2023-04-29T00:46:46.672Z,580.30
2023-04-29T00:46:57.584Z,580.16
2023-04-29T00:47:08.573Z,579.91
2023-04-29T00:47:19.558Z,579.91
2023-04-29T00:47:30.570Z,579.95
2023-04-29T00:47:41.577Z,579.98
2023-04-29T00:47:52.744Z,580.10
2023-04-29T00:48:04.651Z,580.05
2023-04-29T00:48:15.570Z,580.10
2023-04-29T00:48:26.534Z,580.08
2023-04-29T00:48:37.631Z,580.01
2023-04-29T00:48:49.587Z,579.95
2023-04-29T00:49:00.583Z,579.85
2023-04-29T00:49:11.563Z,579.85
2023-04-29T00:49:22.538Z,579.84
2023-04-29T00:49:33.615Z,579.77
2023-04-29T00:49:45.563Z,579.83
2023-04-29T00:49:56.540Z,580.20
2023-04-29T00:50:07.542Z,580.23
2023-04-29T00:50:18.624Z,580.01
2023-04-29T00:50:30.575Z,579.93
2023-04-29T00:50:41.553Z,580.04
2023-04-29T00:50:52.530Z,580.14
2023-04-29T00:51:03.605Z,580.08
2023-04-29T00:51:15.547Z,579.91
2023-04-29T00:51:26.530Z,579.96
2023-04-29T00:51:37.617Z,579.95
2023-04-29T00:51:49.560Z,579.90
2023-04-29T00:52:00.546Z,579.99
2023-04-29T00:52:11.553Z,579.97
2023-04-29T00:52:22.544Z,579.85
2023-04-29T00:52:33.550Z,579.95
2023-04-29T00:52:44.533Z,579.91
2023-04-29T00:52:55.616Z,579.75
2023-04-29T00:53:07.552Z,579.65
2023-04-29T00:53:18.532Z,579.70
2023-04-29T00:53:29.608Z,579.65
2023-04-29T00:53:41.550Z,579.53
2023-04-29T00:53:52.524Z,579.49
2023-04-29T00:54:03.603Z,579.54
2023-04-29T00:54:15.542Z,579.43
2023-04-29T00:54:26.532Z,579.42
2023-04-29T00:54:37.610Z,579.48
2023-04-29T00:54:48.582Z,579.53
2023-04-29T00:54:59.582Z,579.59
2023-04-29T00:55:10.558Z,579.59
2023-04-29T00:55:21.537Z,579.52
2023-04-29T00:55:32.519Z,579.55
2023-04-29T00:55:43.603Z,579.48
2023-04-29T00:55:54.586Z,579.38
2023-04-29T00:56:05.568Z,579.43
2023-04-29T00:56:16.551Z,579.35
2023-04-29T00:56:27.545Z,579.30
2023-04-29T00:56:38.548Z,579.23
2023-04-29T00:56:49.552Z,579.31
2023-04-29T00:57:00.556Z,579.44
2023-04-29T00:57:11.586Z,579.66
2023-04-29T00:57:23.541Z,579.73
2023-04-29T00:57:34.654Z,579.64
2023-04-29T00:57:46.613Z,579.52
2023-04-29T00:57:58.560Z,579.41
2023-04-29T00:58:09.521Z,579.43
2023-04-29T00:58:20.613Z,579.37
2023-04-29T00:58:32.559Z,579.40
2023-04-29T00:58:43.534Z,579.50
2023-04-29T00:58:54.527Z,579.47
2023-04-29T00:59:05.621Z,579.39
2023-04-29T00:59:17.551Z,579.36
2023-04-29T00:59:28.522Z,579.33
2023-04-29T00:59:39.620Z,579.37
2023-04-29T00:59:51.670Z,579.33
2023-04-29T01:00:03.557Z,579.10
2023-04-29T01:00:14.539Z,579.15
2023-04-29T01:00:25.612Z,579.23
2023-04-29T01:00:37.558Z,579.11
2023-04-29T01:00:49.562Z,579.29
2023-04-29T01:01:00.549Z,579.46
2023-04-29T01:01:11.543Z,579.42
2023-04-29T01:01:22.597Z,579.33
2023-04-29T01:01:33.540Z,579.32
2023-04-29T01:01:44.614Z,579.36
2023-04-29T01:01:55.658Z,579.32
2023-04-29T01:02:06.575Z,579.33
2023-04-29T01:02:17.560Z,579.32
2023-04-29T01:02:28.843Z,579.31
2023-04-29T01:02:39.586Z,579.38
2023-04-29T01:02:50.675Z,579.45
2023-04-29T01:03:02.717Z,579.43
2023-04-29T01:03:14.738Z,579.40
2023-04-29T01:03:26.635Z,579.35
2023-04-29T01:03:37.839Z,579.35
2023-04-29T01:03:48.605Z,579.28
2023-04-29T01:04:00.859Z,579.30
2023-04-29T01:04:11.695Z,579.24
2023-04-29T01:04:23.588Z,579.10
2023-04-29T01:04:34.790Z,579.05
2023-04-29T01:04:45.607Z,579.08
2023-04-29T01:04:56.765Z,579.02
2023-04-29T01:05:07.524Z,579.03
2023-04-29T01:05:18.602Z,579.18
2023-04-29T01:05:30.557Z,579.24
2023-04-29T01:05:41.532Z,579.21
2023-04-29T01:05:52.639Z,579.08
2023-04-29T01:06:04.609Z,578.99
2023-04-29T01:06:15.594Z,578.96
2023-04-29T01:06:26.583Z,578.97
2023-04-29T01:06:37.577Z,578.89
2023-04-29T01:06:48.559Z,578.76
2023-04-29T01:06:59.537Z,578.66
2023-04-29T01:07:10.624Z,578.52
2023-04-29T01:07:22.565Z,578.65
2023-04-29T01:07:33.555Z,578.88
2023-04-29T01:07:44.549Z,578.84
2023-04-29T01:07:55.533Z,578.82
2023-04-29T01:08:06.617Z,578.89
2023-04-29T01:08:18.685Z,578.80
2023-04-29T01:08:29.574Z,578.76
2023-04-29T01:08:40.550Z,578.80
2023-04-29T01:08:51.536Z,578.80
2023-04-29T01:09:02.605Z,578.77
2023-04-29T01:09:13.583Z,578.75
2023-04-29T01:09:24.571Z,578.75
2023-04-29T01:09:35.550Z,578.69
2023-04-29T01:09:46.528Z,578.59
2023-04-29T01:09:57.523Z,578.49
2023-04-29T01:10:08.602Z,578.63
2023-04-29T01:10:20.561Z,578.94
2023-04-29T01:10:31.549Z,578.91
2023-04-29T01:10:42.521Z,578.81
2023-04-29T01:10:53.600Z,578.89
2023-04-29T01:11:04.571Z,579.00
2023-04-29T01:11:15.555Z,578.98
2023-04-29T01:11:26.550Z,579.12
2023-04-29T01:11:37.631Z,579.21
2023-04-29T01:11:49.585Z,579.18
2023-04-29T01:12:00.559Z,579.04
2023-04-29T01:12:11.538Z,578.96
2023-04-29T01:12:22.619Z,578.93
2023-04-29T01:12:34.569Z,578.88
2023-04-29T01:12:45.545Z,578.86
2023-04-29T01:12:56.613Z,578.81
2023-04-29T01:13:07.601Z,578.74
2023-04-29T01:13:19.565Z,578.62
2023-04-29T01:13:30.544Z,578.64
2023-04-29T01:13:41.621Z,578.66
2023-04-29T01:13:53.560Z,578.65
2023-04-29T01:14:04.544Z,578.67
2023-04-29T01:14:15.553Z,578.62
2023-04-29T01:14:26.551Z,578.68
2023-04-29T01:14:37.546Z,578.70
2023-04-29T01:14:48.528Z,578.56
2023-04-29T01:14:59.697Z,578.43
2023-04-29T01:15:11.535Z,578.30
2023-04-29T01:15:22.637Z,578.24
2023-04-29T01:15:34.576Z,578.11
2023-04-29T01:15:45.567Z,578.08
2023-04-29T01:15:56.636Z,578.14
2023-04-29T01:16:08.780Z,578.48
2023-04-29T01:16:20.558Z,578.87
2023-04-29T01:16:31.677Z,578.74
2023-04-29T01:16:42.537Z,578.41
2023-04-29T01:16:53.620Z,578.16
2023-04-29T01:17:05.553Z,578.02
2023-04-29T01:17:16.537Z,577.98
2023-04-29T01:17:27.618Z,577.89
2023-04-29T01:17:39.611Z,577.85
2023-04-29T01:17:51.574Z,577.90
2023-04-29T01:18:03.613Z,577.92
2023-04-29T01:18:15.584Z,578.20
2023-04-29T01:18:26.574Z,578.44
2023-04-29T01:18:37.563Z,578.44
2023-04-29T01:18:48.538Z,578.31
2023-04-29T01:18:59.621Z,578.29
2023-04-29T01:19:11.566Z,578.64
2023-04-29T01:19:22.546Z,578.57
2023-04-29T01:19:33.523Z,578.53
2023-04-29T01:19:44.608Z,578.38
2023-04-29T01:19:55.593Z,578.29
2023-04-29T01:20:06.567Z,578.26
2023-04-29T01:20:17.548Z,578.32
2023-04-29T01:20:28.522Z,578.35
2023-04-29T01:20:39.600Z,578.15
2023-04-29T01:20:50.579Z,578.05
2023-04-29T01:21:02.564Z,578.05
2023-04-29T01:21:13.548Z,577.98
2023-04-29T01:21:24.525Z,578.15
2023-04-29T01:21:35.602Z,578.34
2023-04-29T01:21:46.583Z,578.10
2023-04-29T01:21:57.594Z,577.91
2023-04-29T01:22:08.576Z,578.05
2023-04-29T01:22:19.554Z,578.19
2023-04-29T01:22:30.535Z,578.14
2023-04-29T01:22:41.637Z,578.15
2023-04-29T01:22:53.575Z,577.93
2023-04-29T01:23:04.611Z,577.87
2023-04-29T01:23:16.564Z,578.09
2023-04-29T01:23:27.542Z,578.26
2023-04-29T01:23:38.616Z,578.18
2023-04-29T01:23:50.562Z,577.86
2023-04-29T01:24:01.555Z,577.90
2023-04-29T01:24:12.532Z,577.88
2023-04-29T01:24:23.601Z,577.88
2023-04-29T01:24:35.555Z,577.79
2023-04-29T01:24:46.529Z,577.74
2023-04-29T01:24:57.606Z,577.93
2023-04-29T01:25:09.548Z,577.87
2023-04-29T01:25:20.532Z,577.85
2023-04-29T01:25:31.619Z,577.90
2023-04-29T01:25:43.559Z,578.00
2023-04-29T01:25:54.554Z,578.14
2023-04-29T01:26:05.538Z,578.12
2023-04-29T01:26:16.613Z,578.07
2023-04-29T01:26:28.576Z,578.04
2023-04-29T01:26:39.548Z,577.99
2023-04-29T01:26:50.543Z,577.96
2023-04-29T01:27:01.557Z,577.87
2023-04-29T01:27:12.537Z,577.75
2023-04-29T01:27:23.630Z,577.49
2023-04-29T01:27:35.579Z,577.41
2023-04-29T01:27:46.570Z,577.53
2023-04-29T01:27:57.553Z,577.67
2023-04-29T01:28:08.571Z,578.04
2023-04-29T01:28:19.546Z,577.86
2023-04-29T01:28:30.525Z,577.98
2023-04-29T01:28:41.598Z,577.99
2023-04-29T01:28:52.575Z,577.88
2023-04-29T01:29:03.574Z,577.91
2023-04-29T01:29:14.549Z,577.71
2023-04-29T01:29:25.549Z,577.97
2023-04-29T01:29:36.527Z,578.21
2023-04-29T01:29:47.616Z,578.10
2023-04-29T01:29:59.587Z,578.01
2023-04-29T01:30:10.571Z,578.03
2023-04-29T01:30:21.535Z,577.92
2023-04-29T01:30:32.616Z,577.65
2023-04-29T01:30:44.585Z,577.40
2023-04-29T01:30:55.564Z,577.49
2023-04-29T01:31:06.595Z,577.81
2023-04-29T01:31:17.626Z,577.98
2023-04-29T01:31:29.641Z,577.87
2023-04-29T01:31:41.630Z,577.95
2023-04-29T01:31:52.718Z,577.99
2023-04-29T01:32:04.563Z,578.01
2023-04-29T01:32:15.564Z,578.04
2023-04-29T01:32:26.606Z,577.98
2023-04-29T01:32:38.623Z,577.73
2023-04-29T01:32:50.623Z,577.52
2023-04-29T01:33:02.605Z,577.63
2023-04-29T01:33:14.573Z,577.81
2023-04-29T01:33:25.572Z,577.76
2023-04-29T01:33:36.571Z,577.78
2023-04-29T01:33:47.552Z,577.84
2023-04-29T01:33:58.549Z,577.73
2023-04-29T01:34:09.542Z,577.43
2023-04-29T01:34:20.521Z,577.48
2023-04-29T01:34:31.590Z,577.90
2023-04-29T01:34:43.549Z,577.74
2023-04-29T01:34:54.568Z,577.79
2023-04-29T01:35:05.545Z,577.70
2023-04-29T01:35:16.540Z,577.76
2023-04-29T01:35:27.564Z,577.72
2023-04-29T01:35:38.542Z,577.69
2023-04-29T01:35:49.524Z,577.76
2023-04-29T01:36:00.607Z,577.74
2023-04-29T01:36:12.560Z,577.80
2023-04-29T01:36:23.554Z,577.88
2023-04-29T01:36:34.541Z,577.82
2023-04-29T01:36:45.616Z,577.75
2023-04-29T01:36:57.559Z,577.75
2023-04-29T01:37:08.521Z,577.75
2023-04-29T01:37:19.622Z,577.62
2023-04-29T01:37:31.592Z,577.83
2023-04-29T01:37:42.567Z,577.85
2023-04-29T01:37:53.544Z,577.72
2023-04-29T01:38:04.618Z,577.79
2023-04-29T01:38:16.553Z,577.66
2023-04-29T01:38:27.536Z,577.69
2023-04-29T01:38:38.612Z,577.78
2023-04-29T01:38:50.556Z,577.83
2023-04-29T01:39:01.553Z,577.84
2023-04-29T01:39:12.528Z,577.73
2023-04-29T01:39:23.520Z,577.68
2023-04-29T01:39:34.611Z,577.77
2023-04-29T01:39:45.580Z,577.80
2023-04-29T01:39:56.559Z,577.64
2023-04-29T01:40:07.538Z,577.55
2023-04-29T01:40:18.614Z,577.41
2023-04-29T01:40:30.556Z,577.28
2023-04-29T01:40:41.541Z,577.31
2023-04-29T01:40:52.614Z,577.53
2023-04-29T01:41:04.554Z,577.71
2023-04-29T01:41:15.534Z,577.73
2023-04-29T01:41:26.620Z,577.64
2023-04-29T01:41:38.561Z,577.56
2023-04-29T01:41:49.543Z,577.66
2023-04-29T01:42:00.524Z,577.66
2023-04-29T01:42:11.646Z,577.50
2023-04-29T01:42:23.598Z,577.40
2023-04-29T01:42:34.582Z,577.31
2023-04-29T01:42:45.556Z,577.22
2023-04-29T01:42:56.529Z,577.60
2023-04-29T01:43:07.606Z,577.76
2023-04-29T01:43:19.550Z,577.76
2023-04-29T01:43:30.551Z,577.47
2023-04-29T01:43:41.543Z,577.58
2023-04-29T01:43:52.509Z,577.76
2023-04-29T01:44:03.608Z,577.78
2023-04-29T01:44:15.553Z,577.78
2023-04-29T01:44:26.526Z,577.52
2023-04-29T01:44:37.601Z,577.36
2023-04-29T01:44:49.552Z,577.58
2023-04-29T01:45:00.527Z,577.80
2023-04-29T01:45:11.611Z,577.69
2023-04-29T01:45:23.628Z,577.36
2023-04-29T01:45:35.566Z,577.67
2023-04-29T01:45:46.543Z,577.88
2023-04-29T01:45:57.522Z,577.84
2023-04-29T01:46:08.628Z,577.45
2023-04-29T01:46:20.594Z,577.31
2023-04-29T01:46:32.587Z,577.61
2023-04-29T01:46:43.615Z,577.55
2023-04-29T01:46:55.641Z,577.56
2023-04-29T01:47:06.642Z,577.61
2023-04-29T01:47:17.595Z,577.53
2023-04-29T01:47:28.591Z,577.50
2023-04-29T01:47:39.612Z,577.38
2023-04-29T01:47:50.577Z,577.36
2023-04-29T01:48:01.656Z,577.31
2023-04-29T01:48:13.568Z,577.12
2023-04-29T01:48:24.537Z,576.91
2023-04-29T01:48:35.617Z,576.94
2023-04-29T01:48:47.558Z,577.20
2023-04-29T01:48:58.541Z,577.39
2023-04-29T01:49:09.627Z,577.40
2023-04-29T01:49:21.571Z,576.95
2023-04-29T01:49:32.535Z,577.02
2023-04-29T01:49:43.612Z,577.34
2023-04-29T01:49:55.564Z,577.39
2023-04-29T01:50:06.532Z,577.36
2023-04-29T01:50:17.612Z,577.32
2023-04-29T01:50:29.566Z,577.20
2023-04-29T01:50:40.543Z,577.28
2023-04-29T01:50:51.541Z,577.23
2023-04-29T01:51:02.528Z,577.06
2023-04-29T01:51:13.608Z,576.99
2023-04-29T01:51:24.581Z,577.12
2023-04-29T01:51:35.556Z,577.21
2023-04-29T01:51:46.527Z,577.11
2023-04-29T01:51:57.530Z,576.96
2023-04-29T01:52:08.537Z,577.00
2023-04-29T01:52:19.599Z,577.00
2023-04-29T01:52:31.551Z,577.09
2023-04-29T01:52:42.570Z,577.10
2023-04-29T01:52:53.549Z,577.04
2023-04-29T01:53:04.616Z,576.97
2023-04-29T01:53:16.568Z,577.06
2023-04-29T01:53:27.551Z,577.25
2023-04-29T01:53:38.561Z,577.45
2023-04-29T01:53:49.552Z,577.41
2023-04-29T01:54:00.533Z,577.41
2023-04-29T01:54:11.613Z,577.38
2023-04-29T01:54:22.591Z,577.21
2023-04-29T01:54:34.546Z,577.29
2023-04-29T01:54:45.526Z,577.16
2023-04-29T01:54:56.605Z,577.21
2023-04-29T01:55:08.563Z,577.16
2023-04-29T01:55:19.543Z,577.19
2023-04-29T01:55:30.538Z,577.27
2023-04-29T01:55:41.620Z,577.30
2023-04-29T01:55:53.552Z,577.30
2023-04-29T01:56:04.530Z,577.40
2023-04-29T01:56:15.605Z,577.36
2023-04-29T01:56:26.573Z,577.30
2023-04-29T01:56:37.558Z,577.19
2023-04-29T01:56:48.534Z,577.12
2023-04-29T01:56:59.523Z,577.19
2023-04-29T01:57:10.603Z,577.38
2023-04-29T01:57:21.588Z,577.43
2023-04-29T01:57:32.564Z,577.13
2023-04-29T01:57:43.538Z,576.84
2023-04-29T01:57:54.616Z,577.18
2023-04-29T01:58:06.624Z,577.30
2023-04-29T01:58:18.580Z,577.19
2023-04-29T01:58:29.573Z,577.23
2023-04-29T01:58:40.560Z,577.19
2023-04-29T01:58:51.551Z,577.13
2023-04-29T01:59:02.541Z,577.29
2023-04-29T01:59:13.541Z,577.28
2023-04-29T01:59:24.531Z,577.21
2023-04-29T01:59:35.620Z,577.15
2023-04-29T01:59:47.566Z,576.92
2023-04-29T01:59:58.549Z,576.90
2023-04-29T02:00:09.526Z,577.23
2023-04-29T02:00:20.609Z,577.22
2023-04-29T02:00:32.623Z,577.15
2023-04-29T02:00:44.590Z,576.95
2023-04-29T02:00:55.666Z,576.99
2023-04-29T02:01:06.611Z,576.99
2023-04-29T02:01:18.591Z,576.97
2023-04-29T02:01:29.572Z,576.96
2023-04-29T02:01:41.570Z,576.98
2023-04-29T02:01:52.545Z,576.98
2023-04-29T02:02:03.556Z,577.00
2023-04-29T02:02:14.543Z,576.96
2023-04-29T02:02:25.731Z,576.87
2023-04-29T02:02:37.705Z,576.97
2023-04-29T02:02:48.742Z,577.09
2023-04-29T02:03:00.742Z,577.09
2023-04-29T02:03:12.658Z,577.15
2023-04-29T02:03:23.691Z,577.17
2023-04-29T02:03:34.734Z,577.08
2023-04-29T02:03:45.701Z,577.02
2023-04-29T02:03:56.676Z,577.06
2023-04-29T02:04:07.754Z,577.03
2023-04-29T02:04:19.630Z,576.99
2023-04-29T02:04:31.634Z,576.97
2023-04-29T02:04:43.579Z,577.03
2023-04-29T02:04:55.649Z,577.03
2023-04-29T02:05:06.561Z,577.04
2023-04-29T02:05:17.539Z,576.99
2023-04-29T02:05:28.537Z,576.93
2023-04-29T02:05:39.616Z,576.88
2023-04-29T02:05:51.565Z,576.67
2023-04-29T02:06:02.578Z,576.64
2023-04-29T02:06:13.550Z,576.62
2023-04-29T02:06:24.577Z,576.69
2023-04-29T02:06:35.555Z,576.74
2023-04-29T02:06:46.526Z,576.70
2023-04-29T02:06:57.623Z,576.55
2023-04-29T02:07:09.568Z,576.42
2023-04-29T02:07:20.567Z,576.70
2023-04-29T02:07:31.533Z,576.80
2023-04-29T02:07:42.531Z,576.63
2023-04-29T02:07:53.611Z,576.51
2023-04-29T02:08:05.563Z,576.84
2023-04-29T02:08:16.553Z,576.87
2023-04-29T02:08:27.532Z,576.68
2023-04-29T02:08:38.606Z,576.72
2023-04-29T02:08:50.559Z,576.59
2023-04-29T02:09:01.576Z,576.69
2023-04-29T02:09:12.567Z,576.86
2023-04-29T02:09:23.548Z,576.92
2023-04-29T02:09:34.545Z,576.93
2023-04-29T02:09:45.550Z,576.92
2023-04-29T02:09:56.549Z,576.93
2023-04-29T02:10:07.550Z,576.91
2023-04-29T02:10:18.543Z,576.91
2023-04-29T02:10:29.530Z,576.85
2023-04-29T02:10:40.608Z,576.68
2023-04-29T02:10:51.586Z,576.50
2023-04-29T02:11:02.573Z,576.35
2023-04-29T02:11:13.543Z,576.24
2023-04-29T02:11:24.620Z,576.28
2023-04-29T02:11:36.567Z,576.33
2023-04-29T02:11:47.548Z,576.38
2023-04-29T02:11:58.525Z,576.35
2023-04-29T02:12:09.610Z,576.30
2023-04-29T02:12:21.537Z,576.51
2023-04-29T02:12:32.539Z,576.52
2023-04-29T02:12:43.613Z,576.51
2023-04-29T02:12:55.567Z,576.67
2023-04-29T02:13:06.539Z,576.75
2023-04-29T02:13:17.621Z,576.67
2023-04-29T02:13:29.561Z,576.58
2023-04-29T02:13:40.537Z,576.51
2023-04-29T02:13:51.531Z,576.48
2023-04-29T02:14:02.614Z,576.47
2023-04-29T02:14:14.570Z,576.53
2023-04-29T02:14:25.543Z,576.58
2023-04-29T02:14:37.886Z,576.59
2023-04-29T02:14:47.588Z,576.59
2023-04-29T02:14:58.589Z,576.52
2023-04-29T02:15:09.564Z,576.40
2023-04-29T02:15:20.561Z,576.37
2023-04-29T02:15:31.535Z,576.37
2023-04-29T02:15:42.540Z,576.38
2023-04-29T02:15:53.581Z,576.34
2023-04-29T02:16:04.614Z,576.38
2023-04-29T02:16:16.603Z,576.30
2023-04-29T02:16:27.660Z,576.20
2023-04-29T02:16:38.632Z,576.15
2023-04-29T02:16:50.780Z,576.30
2023-04-29T02:17:02.597Z,576.38
2023-04-29T02:17:13.580Z,576.34
2023-04-29T02:17:24.570Z,576.25
2023-04-29T02:17:35.652Z,576.25
2023-04-29T02:17:46.622Z,576.26
2023-04-29T02:17:57.624Z,576.21
2023-04-29T02:18:09.571Z,576.30
2023-04-29T02:18:21.591Z,576.34
2023-04-29T02:18:32.584Z,576.23
2023-04-29T02:18:43.561Z,576.14
2023-04-29T02:18:54.545Z,575.89
2023-04-29T02:19:05.619Z,575.81
2023-04-29T02:19:17.565Z,575.89
2023-04-29T02:19:28.563Z,576.07
2023-04-29T02:19:39.552Z,576.22
2023-04-29T02:19:50.777Z,576.34
2023-04-29T02:20:01.623Z,576.16
2023-04-29T02:20:13.562Z,576.10